sensor_id;sensor_type;location;lat;lon;timestamp;temperature;humidity
40630;DHT22;26329;40.388;-3.710;2023-05-06T00:08:22;19.50;31.30
40630;DHT22;26329;40.388;-3.710;2023-05-06T00:18:23;19.30;32.20
40630;DHT22;26329;40.388;-3.710;2023-05-06T00:28:24;18.90;32.10
40630;DHT22;26329;40.388;-3.710;2023-05-06T00:38:25;18.70;32.60
40630;DHT22;26329;40.388;-3.710;2023-05-06T00:48:25;18.50;33.00
40630;DHT22;26329;40.388;-3.710;2023-05-06T00:58:26;18.20;33.50
40630;DHT22;26329;40.388;-3.710;2023-05-06T01:08:34;18.00;33.90
40630;DHT22;26329;40.388;-3.710;2023-05-06T01:18:37;17.90;34.40
40630;DHT22;26329;40.388;-3.710;2023-05-06T01:28:38;18.00;34.40
40630;DHT22;26329;40.388;-3.710;2023-05-06T01:38:44;17.70;34.80
40630;DHT22;26329;40.388;-3.710;2023-05-06T01:48:50;17.70;35.10
40630;DHT22;26329;40.388;-3.710;2023-05-06T01:58:53;17.50;35.80
40630;DHT22;26329;40.388;-3.710;2023-05-06T02:08:54;17.20;36.80
40630;DHT22;26329;40.388;-3.710;2023-05-06T02:18:54;17.10;36.90
40630;DHT22;26329;40.388;-3.710;2023-05-06T02:28:55;17.00;37.30
40630;DHT22;26329;40.388;-3.710;2023-05-06T02:38:56;16.70;38.30
40630;DHT22;26329;40.388;-3.710;2023-05-06T02:48:57;16.60;38.50
40630;DHT22;26329;40.388;-3.710;2023-05-06T02:58:57;16.30;39.10
40630;DHT22;26329;40.388;-3.710;2023-05-06T03:08:58;16.20;39.50
40630;DHT22;26329;40.388;-3.710;2023-05-06T03:18:59;16.00;40.10
40630;DHT22;26329;40.388;-3.710;2023-05-06T03:29:00;15.80;40.70
40630;DHT22;26329;40.388;-3.710;2023-05-06T03:39:00;15.80;41.20
40630;DHT22;26329;40.388;-3.710;2023-05-06T03:49:01;15.70;41.40
40630;DHT22;26329;40.388;-3.710;2023-05-06T03:59:02;15.70;41.60
40630;DHT22;26329;40.388;-3.710;2023-05-06T04:09:03;15.70;42.00
40630;DHT22;26329;40.388;-3.710;2023-05-06T04:19:05;15.50;42.20
40630;DHT22;26329;40.388;-3.710;2023-05-06T04:29:06;15.30;42.90
40630;DHT22;26329;40.388;-3.710;2023-05-06T04:39:07;15.20;43.30
40630;DHT22;26329;40.388;-3.710;2023-05-06T04:49:08;15.10;43.80
40630;DHT22;26329;40.388;-3.710;2023-05-06T04:59:08;15.00;43.80
40630;DHT22;26329;40.388;-3.710;2023-05-06T05:09:09;14.90;44.50
40630;DHT22;26329;40.388;-3.710;2023-05-06T05:19:10;14.90;44.70
40630;DHT22;26329;40.388;-3.710;2023-05-06T05:29:11;15.00;44.50
40630;DHT22;26329;40.388;-3.710;2023-05-06T05:39:11;15.00;45.00
40630;DHT22;26329;40.388;-3.710;2023-05-06T05:49:12;14.80;45.70
40630;DHT22;26329;40.388;-3.710;2023-05-06T05:59:13;14.70;46.20
40630;DHT22;26329;40.388;-3.710;2023-05-06T06:09:13;14.80;45.90
40630;DHT22;26329;40.388;-3.710;2023-05-06T06:19:16;14.90;46.20
40630;DHT22;26329;40.388;-3.710;2023-05-06T06:29:16;14.90;46.50
40630;DHT22;26329;40.388;-3.710;2023-05-06T06:39:17;15.20;46.40
40630;DHT22;26329;40.388;-3.710;2023-05-06T06:49:18;15.90;45.10
40630;DHT22;26329;40.388;-3.710;2023-05-06T06:59:19;17.10;42.50
40630;DHT22;26329;40.388;-3.710;2023-05-06T07:09:19;17.80;40.90
40630;DHT22;26329;40.388;-3.710;2023-05-06T07:19:20;18.60;39.80
40630;DHT22;26329;40.388;-3.710;2023-05-06T07:29:21;19.10;38.30
40630;DHT22;26329;40.388;-3.710;2023-05-06T07:39:21;19.70;36.40
40630;DHT22;26329;40.388;-3.710;2023-05-06T07:49:22;20.30;35.40
40630;DHT22;26329;40.388;-3.710;2023-05-06T07:59:23;20.60;34.60
40630;DHT22;26329;40.388;-3.710;2023-05-06T08:09:24;21.00;34.10
40630;DHT22;26329;40.388;-3.710;2023-05-06T08:19:25;21.20;33.40
40630;DHT22;26329;40.388;-3.710;2023-05-06T08:29:26;21.80;32.60
40630;DHT22;26329;40.388;-3.710;2023-05-06T08:39:26;22.00;32.50
40630;DHT22;26329;40.388;-3.710;2023-05-06T08:49:27;22.20;32.10
40630;DHT22;26329;40.388;-3.710;2023-05-06T08:59:29;22.20;31.10
40630;DHT22;26329;40.388;-3.710;2023-05-06T09:09:32;22.40;30.70
40630;DHT22;26329;40.388;-3.710;2023-05-06T09:19:37;22.70;30.70
40630;DHT22;26329;40.388;-3.710;2023-05-06T09:29:37;22.80;30.60
40630;DHT22;26329;40.388;-3.710;2023-05-06T09:39:38;23.10;30.30
40630;DHT22;26329;40.388;-3.710;2023-05-06T09:49:39;23.50;30.10
40630;DHT22;26329;40.388;-3.710;2023-05-06T09:59:42;23.70;29.20
40630;DHT22;26329;40.388;-3.710;2023-05-06T10:09:43;23.90;28.50
40630;DHT22;26329;40.388;-3.710;2023-05-06T10:19:48;24.10;28.20
40630;DHT22;26329;40.388;-3.710;2023-05-06T10:29:52;24.30;28.50
40630;DHT22;26329;40.388;-3.710;2023-05-06T10:39:57;24.50;27.20
40630;DHT22;26329;40.388;-3.710;2023-05-06T11:00:21;24.80;26.40
40630;DHT22;26329;40.388;-3.710;2023-05-06T11:10:33;25.20;25.80
40630;DHT22;26329;40.388;-3.710;2023-05-06T11:20:35;25.20;25.30
40630;DHT22;26329;40.388;-3.710;2023-05-06T11:30:40;25.70;25.20
40630;DHT22;26329;40.388;-3.710;2023-05-06T11:40:41;25.90;24.40
40630;DHT22;26329;40.388;-3.710;2023-05-06T11:50:46;26.20;25.10
40630;DHT22;26329;40.388;-3.710;2023-05-06T12:00:48;26.20;25.30
40630;DHT22;26329;40.388;-3.710;2023-05-06T12:10:52;26.50;24.80
40630;DHT22;26329;40.388;-3.710;2023-05-06T12:20:54;26.50;24.40
40630;DHT22;26329;40.388;-3.710;2023-05-06T12:30:55;26.70;24.10
40630;DHT22;26329;40.388;-3.710;2023-05-06T12:40:56;26.80;24.10
40630;DHT22;26329;40.388;-3.710;2023-05-06T12:50:57;27.00;23.70
40630;DHT22;26329;40.388;-3.710;2023-05-06T13:00:58;27.20;23.80
40630;DHT22;26329;40.388;-3.710;2023-05-06T13:10:58;27.20;24.10
40630;DHT22;26329;40.388;-3.710;2023-05-06T13:21:01;27.20;24.20
40630;DHT22;26329;40.388;-3.710;2023-05-06T13:31:01;27.50;24.10
40630;DHT22;26329;40.388;-3.710;2023-05-06T13:41:02;27.50;23.90
40630;DHT22;26329;40.388;-3.710;2023-05-06T13:51:03;27.60;23.90
40630;DHT22;26329;40.388;-3.710;2023-05-06T14:01:04;27.60;23.40
40630;DHT22;26329;40.388;-3.710;2023-05-06T14:11:05;27.70;23.40
40630;DHT22;26329;40.388;-3.710;2023-05-06T14:21:06;27.60;23.00
40630;DHT22;26329;40.388;-3.710;2023-05-06T14:31:06;27.70;22.60
40630;DHT22;26329;40.388;-3.710;2023-05-06T14:41:07;27.70;22.20
40630;DHT22;26329;40.388;-3.710;2023-05-06T14:51:08;27.80;22.90
40630;DHT22;26329;40.388;-3.710;2023-05-06T15:01:09;27.70;23.00
40630;DHT22;26329;40.388;-3.710;2023-05-06T15:11:10;27.80;23.00
40630;DHT22;26329;40.388;-3.710;2023-05-06T15:21:11;27.70;22.70
40630;DHT22;26329;40.388;-3.710;2023-05-06T15:31:12;27.70;21.30
40630;DHT22;26329;40.388;-3.710;2023-05-06T15:41:13;27.70;21.00
40630;DHT22;26329;40.388;-3.710;2023-05-06T15:51:14;27.60;20.30
40630;DHT22;26329;40.388;-3.710;2023-05-06T16:01:15;27.70;20.50
40630;DHT22;26329;40.388;-3.710;2023-05-06T16:11:16;27.60;20.30
40630;DHT22;26329;40.388;-3.710;2023-05-06T16:21:17;27.60;19.00
40630;DHT22;26329;40.388;-3.710;2023-05-06T16:31:18;27.60;18.30
40630;DHT22;26329;40.388;-3.710;2023-05-06T16:41:19;27.40;17.30
40630;DHT22;26329;40.388;-3.710;2023-05-06T16:51:20;27.30;16.90
40630;DHT22;26329;40.388;-3.710;2023-05-06T17:01:20;27.30;16.50
40630;DHT22;26329;40.388;-3.710;2023-05-06T17:11:21;27.20;16.50
40630;DHT22;26329;40.388;-3.710;2023-05-06T17:21:22;27.10;16.80
40630;DHT22;26329;40.388;-3.710;2023-05-06T17:31:23;27.00;18.00
40630;DHT22;26329;40.388;-3.710;2023-05-06T17:41:23;26.90;18.50
40630;DHT22;26329;40.388;-3.710;2023-05-06T17:51:25;26.70;19.00
40630;DHT22;26329;40.388;-3.710;2023-05-06T18:01:27;26.60;20.50
40630;DHT22;26329;40.388;-3.710;2023-05-06T18:11:28;26.30;21.90
40630;DHT22;26329;40.388;-3.710;2023-05-06T18:21:32;26.20;24.00
40630;DHT22;26329;40.388;-3.710;2023-05-06T18:31:34;26.00;24.90
40630;DHT22;26329;40.388;-3.710;2023-05-06T18:41:35;25.70;26.00
40630;DHT22;26329;40.388;-3.710;2023-05-06T18:51:36;25.50;27.70
40630;DHT22;26329;40.388;-3.710;2023-05-06T19:01:36;25.20;28.90
40630;DHT22;26329;40.388;-3.710;2023-05-06T19:11:37;25.00;29.20
40630;DHT22;26329;40.388;-3.710;2023-05-06T19:21:38;24.70;29.70
40630;DHT22;26329;40.388;-3.710;2023-05-06T19:31:39;24.40;30.70
40630;DHT22;26329;40.388;-3.710;2023-05-06T19:41:39;24.20;31.30
40630;DHT22;26329;40.388;-3.710;2023-05-06T19:51:40;23.90;32.30
40630;DHT22;26329;40.388;-3.710;2023-05-06T20:01:41;23.60;32.70
40630;DHT22;26329;40.388;-3.710;2023-05-06T20:11:42;23.30;32.40
40630;DHT22;26329;40.388;-3.710;2023-05-06T20:21:42;23.30;31.00
40630;DHT22;26329;40.388;-3.710;2023-05-06T20:31:45;23.30;30.80
40630;DHT22;26329;40.388;-3.710;2023-05-06T20:41:46;23.20;31.50
40630;DHT22;26329;40.388;-3.710;2023-05-06T20:51:47;23.00;31.80
40630;DHT22;26329;40.388;-3.710;2023-05-06T21:01:48;22.90;32.20
40630;DHT22;26329;40.388;-3.710;2023-05-06T21:11:48;22.80;32.70
40630;DHT22;26329;40.388;-3.710;2023-05-06T21:21:49;22.60;33.10
40630;DHT22;26329;40.388;-3.710;2023-05-06T21:31:50;22.40;33.70
40630;DHT22;26329;40.388;-3.710;2023-05-06T21:41:50;22.30;34.30
40630;DHT22;26329;40.388;-3.710;2023-05-06T21:51:51;22.20;34.90
40630;DHT22;26329;40.388;-3.710;2023-05-06T22:01:52;22.00;35.20
40630;DHT22;26329;40.388;-3.710;2023-05-06T22:11:53;21.90;35.10
40630;DHT22;26329;40.388;-3.710;2023-05-06T22:21:53;21.80;35.50
40630;DHT22;26329;40.388;-3.710;2023-05-06T22:31:55;21.70;35.50
40630;DHT22;26329;40.388;-3.710;2023-05-06T22:41:55;21.70;35.40
40630;DHT22;26329;40.388;-3.710;2023-05-06T22:51:56;21.60;35.80
40630;DHT22;26329;40.388;-3.710;2023-05-06T23:01:57;21.30;36.20
40630;DHT22;26329;40.388;-3.710;2023-05-06T23:11:58;21.30;36.60
40630;DHT22;26329;40.388;-3.710;2023-05-06T23:21:58;21.20;36.90
40630;DHT22;26329;40.388;-3.710;2023-05-06T23:31:59;21.30;36.50
40630;DHT22;26329;40.388;-3.710;2023-05-06T23:42:00;21.20;36.10
40630;DHT22;26329;40.388;-3.710;2023-05-06T23:52:02;21.30;36.40
